首页
METAR-TAF:

METAR-TAF

机场 :

恩贾梅纳国际机场

恩賈梅納, 乍得

纬度: 12-08N, 经度: 015-02E, 海拔: 295米

当前天气观测

该预报发布于1小时和18分钟前的20:00 UTC
风速3节,风向南转南东
温度 33°C
湿度 49%
气压 1008 hPa
能見度: 6000
少量云层高于5000英尺, 积雨云.

METAR: FTTJ 252000Z 15003KT 6000 FEW050CB 33/21 Q1008 NOSIG

时间: 22:18 (21:18 UTC)

预报

该预报发布于4小时和18分钟前的17:00 UTC
预报有效从25日的 18点(UTC)到 26日的 24点(UTC)
风速6节,风向南转南东
能見度: 7000
少量云层高于4000英尺, 积雨云.
几率 30% :
短暂存在
从 25日的 19点(UTC)到 26日的 01点(UTC)
风速16节,风向多变,有时为40节阵风
能見度: 2000
高吹尘, 雷暴, 雨
成为
从 26日的 01点(UTC)到 26日的 03点(UTC)
几率 30% :
短暂存在
从 26日的 14点(UTC)到 26日的 20点(UTC)
风速16节,风向多变
能見度: 4000
雷暴, 雨,

TAF: FTTJ 251700Z 2518/2624 16006KT 7000 FEW040CB PROB30 TEMPO 2519/2601 VRB16G40KT 2000 BLDU TSRA BECMG 2601/2603 NSC PROB30 TEMPO 2614/2620 VRB16KT 4000 TSRA

超过4000个机场的气象观测和天气预报(METAR&TAF报告)。

可查询的气象台以黄色和红色小点在地图上表示。

将鼠标移到小点上方,可查看气象台名称。

然后点击查看天气观测和预报。

如需切换地图:点击带黑十字的绿色按钮放大地图;点击带横线的绿色按钮缩小地图;或者点击绿色箭头查看邻近地区的地图。


METAR-TAF: